sensor_id;sensor_type;location;lat;lon;timestamp;P1;durP1;ratioP1;P2;durP2;ratioP2
1328;SDS011;658;48.820;9.354;2023-03-19T00:03:53;1.87;;;1.77;;
1328;SDS011;658;48.820;9.354;2023-03-19T00:07:54;1.90;;;1.80;;
1328;SDS011;658;48.820;9.354;2023-03-19T00:11:54;1.77;;;1.67;;
1328;SDS011;658;48.820;9.354;2023-03-19T00:15:55;1.87;;;1.77;;
1328;SDS011;658;48.820;9.354;2023-03-19T00:19:56;1.80;;;1.70;;
1328;SDS011;658;48.820;9.354;2023-03-19T00:23:57;2.10;;;2.00;;
1328;SDS011;658;48.820;9.354;2023-03-19T00:28:01;2.10;;;2.00;;
1328;SDS011;658;48.820;9.354;2023-03-19T00:32:01;1.80;;;1.70;;
1328;SDS011;658;48.820;9.354;2023-03-19T00:36:02;1.90;;;1.80;;
1328;SDS011;658;48.820;9.354;2023-03-19T00:40:04;1.87;;;1.77;;
1328;SDS011;658;48.820;9.354;2023-03-19T00:44:06;2.20;;;2.00;;
1328;SDS011;658;48.820;9.354;2023-03-19T00:48:07;1.87;;;1.77;;
1328;SDS011;658;48.820;9.354;2023-03-19T00:52:08;2.90;;;1.70;;
1328;SDS011;658;48.820;9.354;2023-03-19T00:56:09;2.23;;;2.03;;
1328;SDS011;658;48.820;9.354;2023-03-19T01:00:12;1.80;;;1.70;;
1328;SDS011;658;48.820;9.354;2023-03-19T01:04:13;1.70;;;1.60;;
1328;SDS011;658;48.820;9.354;2023-03-19T01:08:14;1.80;;;1.70;;
1328;SDS011;658;48.820;9.354;2023-03-19T01:12:16;1.80;;;1.70;;
1328;SDS011;658;48.820;9.354;2023-03-19T01:16:18;1.80;;;1.70;;
1328;SDS011;658;48.820;9.354;2023-03-19T01:20:19;2.10;;;2.00;;
1328;SDS011;658;48.820;9.354;2023-03-19T01:24:22;2.13;;;1.90;;
1328;SDS011;658;48.820;9.354;2023-03-19T01:28:23;1.77;;;1.67;;
1328;SDS011;658;48.820;9.354;2023-03-19T01:32:25;1.70;;;1.60;;
1328;SDS011;658;48.820;9.354;2023-03-19T01:36:26;1.83;;;1.73;;
1328;SDS011;658;48.820;9.354;2023-03-19T01:40:28;2.23;;;1.77;;
1328;SDS011;658;48.820;9.354;2023-03-19T01:44:34;1.80;;;1.70;;
1328;SDS011;658;48.820;9.354;2023-03-19T01:52:42;1.80;;;1.70;;
1328;SDS011;658;48.820;9.354;2023-03-19T01:56:43;1.70;;;1.60;;
1328;SDS011;658;48.820;9.354;2023-03-19T02:00:45;1.73;;;1.63;;
1328;SDS011;658;48.820;9.354;2023-03-19T02:04:47;2.27;;;2.07;;
1328;SDS011;658;48.820;9.354;2023-03-19T02:08:52;2.00;;;1.90;;
1328;SDS011;658;48.820;9.354;2023-03-19T02:12:55;2.00;;;1.87;;
1328;SDS011;658;48.820;9.354;2023-03-19T02:16:56;2.10;;;1.90;;
1328;SDS011;658;48.820;9.354;2023-03-19T02:21:04;1.87;;;1.77;;
1328;SDS011;658;48.820;9.354;2023-03-19T02:25:14;1.80;;;1.70;;
1328;SDS011;658;48.820;9.354;2023-03-19T02:29:24;3.83;;;2.30;;
1328;SDS011;658;48.820;9.354;2023-03-19T02:33:25;1.77;;;1.67;;
1328;SDS011;658;48.820;9.354;2023-03-19T02:37:26;2.13;;;1.93;;
1328;SDS011;658;48.820;9.354;2023-03-19T02:41:29;1.90;;;1.80;;
1328;SDS011;658;48.820;9.354;2023-03-19T02:45:31;1.90;;;1.80;;
1328;SDS011;658;48.820;9.354;2023-03-19T02:49:32;1.97;;;1.80;;
1328;SDS011;658;48.820;9.354;2023-03-19T02:53:32;1.97;;;1.60;;
1328;SDS011;658;48.820;9.354;2023-03-19T02:57:34;2.23;;;2.03;;
1328;SDS011;658;48.820;9.354;2023-03-19T03:01:34;1.80;;;1.70;;
1328;SDS011;658;48.820;9.354;2023-03-19T03:05:38;1.57;;;1.47;;
1328;SDS011;658;48.820;9.354;2023-03-19T03:09:39;2.30;;;2.10;;
1328;SDS011;658;48.820;9.354;2023-03-19T03:13:40;1.80;;;1.70;;
1328;SDS011;658;48.820;9.354;2023-03-19T03:17:41;1.90;;;1.80;;
1328;SDS011;658;48.820;9.354;2023-03-19T03:21:44;1.80;;;1.70;;
1328;SDS011;658;48.820;9.354;2023-03-19T03:25:47;1.90;;;1.80;;
1328;SDS011;658;48.820;9.354;2023-03-19T03:29:49;2.07;;;1.90;;
1328;SDS011;658;48.820;9.354;2023-03-19T03:33:49;1.80;;;1.70;;
1328;SDS011;658;48.820;9.354;2023-03-19T03:37:50;1.63;;;1.53;;
1328;SDS011;658;48.820;9.354;2023-03-19T03:41:51;2.07;;;1.97;;
1328;SDS011;658;48.820;9.354;2023-03-19T03:45:51;2.10;;;2.00;;
1328;SDS011;658;48.820;9.354;2023-03-19T03:49:52;2.97;;;2.00;;
1328;SDS011;658;48.820;9.354;2023-03-19T03:53:53;2.23;;;2.03;;
1328;SDS011;658;48.820;9.354;2023-03-19T03:57:53;1.73;;;1.63;;
1328;SDS011;658;48.820;9.354;2023-03-19T04:01:54;2.33;;;2.17;;
1328;SDS011;658;48.820;9.354;2023-03-19T04:05:55;2.23;;;2.13;;
1328;SDS011;658;48.820;9.354;2023-03-19T04:09:56;2.20;;;2.10;;
1328;SDS011;658;48.820;9.354;2023-03-19T04:13:58;2.70;;;2.50;;
1328;SDS011;658;48.820;9.354;2023-03-19T04:17:58;2.10;;;2.00;;
1328;SDS011;658;48.820;9.354;2023-03-19T04:21:59;1.80;;;1.70;;
1328;SDS011;658;48.820;9.354;2023-03-19T04:26:02;2.23;;;2.10;;
1328;SDS011;658;48.820;9.354;2023-03-19T04:30:06;2.43;;;2.23;;
1328;SDS011;658;48.820;9.354;2023-03-19T04:34:07;1.93;;;1.83;;
1328;SDS011;658;48.820;9.354;2023-03-19T04:38:07;2.20;;;2.10;;
1328;SDS011;658;48.820;9.354;2023-03-19T04:42:08;1.63;;;1.53;;
1328;SDS011;658;48.820;9.354;2023-03-19T04:46:10;2.37;;;2.17;;
1328;SDS011;658;48.820;9.354;2023-03-19T04:50:10;1.83;;;1.73;;
1328;SDS011;658;48.820;9.354;2023-03-19T04:54:12;2.93;;;2.20;;
1328;SDS011;658;48.820;9.354;2023-03-19T04:58:13;2.23;;;2.03;;
1328;SDS011;658;48.820;9.354;2023-03-19T05:02:14;1.90;;;1.80;;
1328;SDS011;658;48.820;9.354;2023-03-19T05:06:15;1.90;;;1.80;;
1328;SDS011;658;48.820;9.354;2023-03-19T05:10:19;2.33;;;2.13;;
1328;SDS011;658;48.820;9.354;2023-03-19T05:14:20;2.40;;;2.20;;
1328;SDS011;658;48.820;9.354;2023-03-19T05:18:21;2.20;;;2.07;;
1328;SDS011;658;48.820;9.354;2023-03-19T05:22:21;2.13;;;2.03;;
1328;SDS011;658;48.820;9.354;2023-03-19T05:26:22;2.87;;;1.70;;
1328;SDS011;658;48.820;9.354;2023-03-19T05:30:23;1.80;;;1.70;;
1328;SDS011;658;48.820;9.354;2023-03-19T05:34:24;2.00;;;1.90;;
1328;SDS011;658;48.820;9.354;2023-03-19T05:38:24;1.90;;;1.80;;
1328;SDS011;658;48.820;9.354;2023-03-19T05:42:25;2.10;;;2.00;;
1328;SDS011;658;48.820;9.354;2023-03-19T05:46:26;2.30;;;2.20;;
1328;SDS011;658;48.820;9.354;2023-03-19T05:50:27;2.60;;;2.40;;
1328;SDS011;658;48.820;9.354;2023-03-19T05:54:27;2.07;;;1.97;;
1328;SDS011;658;48.820;9.354;2023-03-19T05:58:28;2.37;;;2.17;;
1328;SDS011;658;48.820;9.354;2023-03-19T06:02:29;1.60;;;1.50;;
1328;SDS011;658;48.820;9.354;2023-03-19T06:06:30;1.80;;;1.70;;
1328;SDS011;658;48.820;9.354;2023-03-19T06:10:31;2.10;;;1.90;;
1328;SDS011;658;48.820;9.354;2023-03-19T06:14:33;2.03;;;1.93;;
1328;SDS011;658;48.820;9.354;2023-03-19T06:18:34;2.10;;;2.00;;
1328;SDS011;658;48.820;9.354;2023-03-19T06:22:35;2.40;;;2.20;;
1328;SDS011;658;48.820;9.354;2023-03-19T06:26:36;2.00;;;1.90;;
1328;SDS011;658;48.820;9.354;2023-03-19T06:30:36;2.30;;;2.20;;
1328;SDS011;658;48.820;9.354;2023-03-19T06:34:37;2.40;;;2.20;;
1328;SDS011;658;48.820;9.354;2023-03-19T06:38:38;2.20;;;2.00;;
1328;SDS011;658;48.820;9.354;2023-03-19T06:42:38;2.20;;;2.10;;
1328;SDS011;658;48.820;9.354;2023-03-19T06:46:39;2.10;;;1.77;;
1328;SDS011;658;48.820;9.354;2023-03-19T06:50:40;2.20;;;2.10;;
1328;SDS011;658;48.820;9.354;2023-03-19T06:54:41;1.90;;;1.80;;
1328;SDS011;658;48.820;9.354;2023-03-19T06:58:41;2.23;;;2.13;;
1328;SDS011;658;48.820;9.354;2023-03-19T07:02:42;2.33;;;2.23;;
1328;SDS011;658;48.820;9.354;2023-03-19T07:06:43;2.13;;;2.03;;
1328;SDS011;658;48.820;9.354;2023-03-19T07:10:44;2.10;;;2.00;;
1328;SDS011;658;48.820;9.354;2023-03-19T07:14:45;2.17;;;1.90;;
1328;SDS011;658;48.820;9.354;2023-03-19T07:18:45;2.00;;;1.90;;
1328;SDS011;658;48.820;9.354;2023-03-19T07:22:46;1.73;;;1.63;;
1328;SDS011;658;48.820;9.354;2023-03-19T07:26:49;2.10;;;2.00;;
1328;SDS011;658;48.820;9.354;2023-03-19T07:30:51;1.90;;;1.80;;
1328;SDS011;658;48.820;9.354;2023-03-19T07:34:52;2.40;;;2.20;;
1328;SDS011;658;48.820;9.354;2023-03-19T07:38:53;2.27;;;2.17;;
1328;SDS011;658;48.820;9.354;2023-03-19T07:42:53;2.23;;;2.00;;
1328;SDS011;658;48.820;9.354;2023-03-19T07:46:54;1.67;;;1.57;;
1328;SDS011;658;48.820;9.354;2023-03-19T07:50:55;2.23;;;2.13;;
1328;SDS011;658;48.820;9.354;2023-03-19T07:54:55;2.10;;;2.00;;
1328;SDS011;658;48.820;9.354;2023-03-19T07:58:56;2.20;;;2.10;;
1328;SDS011;658;48.820;9.354;2023-03-19T08:02:58;2.10;;;1.90;;
1328;SDS011;658;48.820;9.354;2023-03-19T08:06:59;2.37;;;2.20;;
1328;SDS011;658;48.820;9.354;2023-03-19T08:11:00;2.10;;;1.90;;
1328;SDS011;658;48.820;9.354;2023-03-19T08:15:01;2.10;;;2.00;;
1328;SDS011;658;48.820;9.354;2023-03-19T08:19:02;2.03;;;1.93;;
1328;SDS011;658;48.820;9.354;2023-03-19T08:23:02;2.10;;;2.00;;
1328;SDS011;658;48.820;9.354;2023-03-19T08:27:03;2.00;;;1.90;;
1328;SDS011;658;48.820;9.354;2023-03-19T08:31:11;2.53;;;2.10;;
1328;SDS011;658;48.820;9.354;2023-03-19T08:35:12;2.00;;;1.70;;
1328;SDS011;658;48.820;9.354;2023-03-19T08:39:13;2.30;;;2.13;;
1328;SDS011;658;48.820;9.354;2023-03-19T08:43:14;2.30;;;2.20;;
1328;SDS011;658;48.820;9.354;2023-03-19T08:47:15;1.90;;;1.80;;
1328;SDS011;658;48.820;9.354;2023-03-19T08:51:16;2.40;;;1.80;;
1328;SDS011;658;48.820;9.354;2023-03-19T08:55:16;1.97;;;1.80;;
1328;SDS011;658;48.820;9.354;2023-03-19T08:59:17;2.30;;;1.80;;
1328;SDS011;658;48.820;9.354;2023-03-19T09:03:19;1.60;;;1.50;;
1328;SDS011;658;48.820;9.354;2023-03-19T09:07:20;2.10;;;1.90;;
1328;SDS011;658;48.820;9.354;2023-03-19T09:11:21;2.00;;;1.70;;
1328;SDS011;658;48.820;9.354;2023-03-19T09:15:22;2.83;;;2.27;;
1328;SDS011;658;48.820;9.354;2023-03-19T09:19:23;2.10;;;2.00;;
1328;SDS011;658;48.820;9.354;2023-03-19T09:23:23;1.83;;;1.70;;
1328;SDS011;658;48.820;9.354;2023-03-19T09:27:24;3.17;;;1.67;;
1328;SDS011;658;48.820;9.354;2023-03-19T09:31:26;1.93;;;1.83;;
1328;SDS011;658;48.820;9.354;2023-03-19T09:35:26;1.70;;;1.60;;
1328;SDS011;658;48.820;9.354;2023-03-19T09:39:30;4.30;;;2.50;;
1328;SDS011;658;48.820;9.354;2023-03-19T09:43:44;3.43;;;2.43;;
1328;SDS011;658;48.820;9.354;2023-03-19T09:48:04;5.50;;;2.47;;
1328;SDS011;658;48.820;9.354;2023-03-19T09:52:29;2.13;;;1.93;;
1328;SDS011;658;48.820;9.354;2023-03-19T09:56:32;2.80;;;2.50;;
1328;SDS011;658;48.820;9.354;2023-03-19T10:00:34;2.17;;;1.97;;
1328;SDS011;658;48.820;9.354;2023-03-19T10:09:02;3.57;;;2.83;;
1328;SDS011;658;48.820;9.354;2023-03-19T10:17:55;2.27;;;2.07;;
1328;SDS011;658;48.820;9.354;2023-03-19T10:22:16;2.70;;;2.50;;
1328;SDS011;658;48.820;9.354;2023-03-19T10:26:25;2.70;;;2.20;;
1328;SDS011;658;48.820;9.354;2023-03-19T10:30:29;2.03;;;1.83;;
1328;SDS011;658;48.820;9.354;2023-03-19T10:34:33;2.27;;;2.07;;
1328;SDS011;658;48.820;9.354;2023-03-19T10:38:40;3.60;;;2.13;;
1328;SDS011;658;48.820;9.354;2023-03-19T10:42:48;2.50;;;1.90;;
1328;SDS011;658;48.820;9.354;2023-03-19T10:47:09;2.10;;;1.90;;
1328;SDS011;658;48.820;9.354;2023-03-19T10:51:14;1.70;;;1.60;;
1328;SDS011;658;48.820;9.354;2023-03-19T10:55:23;2.90;;;1.83;;
1328;SDS011;658;48.820;9.354;2023-03-19T10:59:30;2.47;;;2.23;;
1328;SDS011;658;48.820;9.354;2023-03-19T11:03:36;2.13;;;1.60;;
1328;SDS011;658;48.820;9.354;2023-03-19T11:07:40;1.87;;;1.63;;
1328;SDS011;658;48.820;9.354;2023-03-19T11:15:45;2.90;;;2.00;;
1328;SDS011;658;48.820;9.354;2023-03-19T11:19:48;2.97;;;1.77;;
1328;SDS011;658;48.820;9.354;2023-03-19T11:23:52;1.83;;;1.60;;
1328;SDS011;658;48.820;9.354;2023-03-19T11:28:02;1.63;;;1.53;;
1328;SDS011;658;48.820;9.354;2023-03-19T11:32:15;2.10;;;1.80;;
1328;SDS011;658;48.820;9.354;2023-03-19T11:36:29;1.87;;;1.63;;
1328;SDS011;658;48.820;9.354;2023-03-19T11:40:43;2.23;;;1.67;;
1328;SDS011;658;48.820;9.354;2023-03-19T11:45:10;1.60;;;1.50;;
1328;SDS011;658;48.820;9.354;2023-03-19T11:49:28;1.57;;;1.47;;
1328;SDS011;658;48.820;9.354;2023-03-19T11:57:57;1.40;;;1.30;;
1328;SDS011;658;48.820;9.354;2023-03-19T12:02:24;2.10;;;1.70;;
1328;SDS011;658;48.820;9.354;2023-03-19T12:06:36;2.30;;;2.10;;
1328;SDS011;658;48.820;9.354;2023-03-19T12:10:47;3.00;;;2.30;;
1328;SDS011;658;48.820;9.354;2023-03-19T12:15:10;3.07;;;2.77;;
1328;SDS011;658;48.820;9.354;2023-03-19T12:19:22;4.80;;;3.50;;
1328;SDS011;658;48.820;9.354;2023-03-19T12:32:17;4.70;;;4.30;;
1328;SDS011;658;48.820;9.354;2023-03-19T12:36:32;3.60;;;3.30;;
1328;SDS011;658;48.820;9.354;2023-03-19T12:44:52;4.60;;;4.20;;
1328;SDS011;658;48.820;9.354;2023-03-19T12:48:58;4.50;;;4.10;;
1328;SDS011;658;48.820;9.354;2023-03-19T12:53:13;4.80;;;4.30;;
1328;SDS011;658;48.820;9.354;2023-03-19T12:57:31;4.53;;;4.23;;
1328;SDS011;658;48.820;9.354;2023-03-19T13:01:48;5.33;;;4.90;;
1328;SDS011;658;48.820;9.354;2023-03-19T13:10:17;6.47;;;5.00;;
1328;SDS011;658;48.820;9.354;2023-03-19T13:19:23;5.23;;;4.73;;
1328;SDS011;658;48.820;9.354;2023-03-19T13:23:30;6.30;;;4.93;;
1328;SDS011;658;48.820;9.354;2023-03-19T13:27:34;6.00;;;4.40;;
1328;SDS011;658;48.820;9.354;2023-03-19T13:31:35;4.93;;;4.40;;
1328;SDS011;658;48.820;9.354;2023-03-19T13:35:43;5.13;;;4.40;;
1328;SDS011;658;48.820;9.354;2023-03-19T13:39:51;5.23;;;4.20;;
1328;SDS011;658;48.820;9.354;2023-03-19T13:43:54;4.83;;;4.40;;
1328;SDS011;658;48.820;9.354;2023-03-19T13:47:56;7.90;;;4.70;;
1328;SDS011;658;48.820;9.354;2023-03-19T13:52:09;5.17;;;4.57;;
1328;SDS011;658;48.820;9.354;2023-03-19T13:56:24;6.90;;;4.73;;
1328;SDS011;658;48.820;9.354;2023-03-19T14:05:02;5.60;;;4.70;;
1328;SDS011;658;48.820;9.354;2023-03-19T14:13:33;5.23;;;4.03;;
1328;SDS011;658;48.820;9.354;2023-03-19T14:25:53;5.37;;;4.30;;
1328;SDS011;658;48.820;9.354;2023-03-19T14:30:10;5.17;;;4.00;;
1328;SDS011;658;48.820;9.354;2023-03-19T14:50:56;3.43;;;3.13;;
1328;SDS011;658;48.820;9.354;2023-03-19T14:55:11;4.20;;;3.80;;
1328;SDS011;658;48.820;9.354;2023-03-19T14:59:13;4.63;;;3.50;;
1328;SDS011;658;48.820;9.354;2023-03-19T15:03:18;7.27;;;3.83;;
1328;SDS011;658;48.820;9.354;2023-03-19T15:07:31;9.20;;;3.30;;
1328;SDS011;658;48.820;9.354;2023-03-19T15:11:46;9.53;;;3.53;;
1328;SDS011;658;48.820;9.354;2023-03-19T15:20:18;3.90;;;3.00;;
1328;SDS011;658;48.820;9.354;2023-03-19T15:24:20;4.07;;;3.30;;
1328;SDS011;658;48.820;9.354;2023-03-19T15:28:24;5.83;;;3.30;;
1328;SDS011;658;48.820;9.354;2023-03-19T15:36:33;6.30;;;3.40;;
1328;SDS011;658;48.820;9.354;2023-03-19T15:40:33;4.80;;;2.90;;
1328;SDS011;658;48.820;9.354;2023-03-19T15:44:40;4.13;;;2.70;;
1328;SDS011;658;48.820;9.354;2023-03-19T15:48:49;3.33;;;2.40;;
1328;SDS011;658;48.820;9.354;2023-03-19T15:52:59;2.83;;;2.60;;
1328;SDS011;658;48.820;9.354;2023-03-19T15:57:07;2.77;;;2.30;;
1328;SDS011;658;48.820;9.354;2023-03-19T16:01:12;2.70;;;2.50;;
1328;SDS011;658;48.820;9.354;2023-03-19T16:05:24;2.40;;;2.20;;
1328;SDS011;658;48.820;9.354;2023-03-19T16:13:36;5.73;;;5.23;;
1328;SDS011;658;48.820;9.354;2023-03-19T16:17:37;3.70;;;3.40;;
1328;SDS011;658;48.820;9.354;2023-03-19T16:21:41;3.07;;;2.70;;
1328;SDS011;658;48.820;9.354;2023-03-19T16:25:43;4.07;;;2.80;;
1328;SDS011;658;48.820;9.354;2023-03-19T16:29:45;6.07;;;3.00;;
1328;SDS011;658;48.820;9.354;2023-03-19T16:33:48;4.03;;;2.97;;
1328;SDS011;658;48.820;9.354;2023-03-19T16:37:54;2.90;;;2.63;;
1328;SDS011;658;48.820;9.354;2023-03-19T16:42:33;2.80;;;2.27;;
1328;SDS011;658;48.820;9.354;2023-03-19T16:46:46;6.53;;;3.20;;
1328;SDS011;658;48.820;9.354;2023-03-19T16:50:47;3.20;;;2.90;;
1328;SDS011;658;48.820;9.354;2023-03-19T16:54:47;2.60;;;2.40;;
1328;SDS011;658;48.820;9.354;2023-03-19T16:58:53;3.33;;;2.40;;
1328;SDS011;658;48.820;9.354;2023-03-19T17:02:54;3.40;;;2.73;;
1328;SDS011;658;48.820;9.354;2023-03-19T17:06:55;2.93;;;2.30;;
1328;SDS011;658;48.820;9.354;2023-03-19T17:10:56;3.17;;;2.30;;
1328;SDS011;658;48.820;9.354;2023-03-19T17:14:57;2.90;;;2.70;;
1328;SDS011;658;48.820;9.354;2023-03-19T17:18:58;2.93;;;2.43;;
1328;SDS011;658;48.820;9.354;2023-03-19T17:22:59;2.60;;;2.20;;
1328;SDS011;658;48.820;9.354;2023-03-19T17:27:02;2.53;;;2.33;;
1328;SDS011;658;48.820;9.354;2023-03-19T17:31:03;2.30;;;2.10;;
1328;SDS011;658;48.820;9.354;2023-03-19T17:35:12;2.33;;;2.00;;
1328;SDS011;658;48.820;9.354;2023-03-19T17:39:15;2.77;;;2.20;;
1328;SDS011;658;48.820;9.354;2023-03-19T17:43:15;3.37;;;2.13;;
1328;SDS011;658;48.820;9.354;2023-03-19T17:47:16;2.73;;;2.53;;
1328;SDS011;658;48.820;9.354;2023-03-19T17:51:18;3.63;;;2.20;;
1328;SDS011;658;48.820;9.354;2023-03-19T17:55:24;2.50;;;2.30;;
1328;SDS011;658;48.820;9.354;2023-03-19T17:59:27;5.13;;;3.13;;
1328;SDS011;658;48.820;9.354;2023-03-19T18:03:33;6.10;;;5.60;;
1328;SDS011;658;48.820;9.354;2023-03-19T18:07:35;5.03;;;4.53;;
1328;SDS011;658;48.820;9.354;2023-03-19T18:11:35;6.33;;;5.77;;
1328;SDS011;658;48.820;9.354;2023-03-19T18:15:37;7.00;;;6.40;;
1328;SDS011;658;48.820;9.354;2023-03-19T18:19:39;6.60;;;6.00;;
1328;SDS011;658;48.820;9.354;2023-03-19T18:23:41;9.20;;;8.30;;
1328;SDS011;658;48.820;9.354;2023-03-19T18:27:42;9.20;;;8.30;;
1328;SDS011;658;48.820;9.354;2023-03-19T18:31:43;8.67;;;7.77;;
1328;SDS011;658;48.820;9.354;2023-03-19T18:35:46;8.63;;;7.73;;
1328;SDS011;658;48.820;9.354;2023-03-19T18:39:47;9.93;;;8.90;;
1328;SDS011;658;48.820;9.354;2023-03-19T18:43:48;9.17;;;8.27;;
1328;SDS011;658;48.820;9.354;2023-03-19T18:47:50;10.23;;;9.27;;
1328;SDS011;658;48.820;9.354;2023-03-19T18:51:51;9.60;;;8.70;;
1328;SDS011;658;48.820;9.354;2023-03-19T18:55:53;11.57;;;10.37;;
1328;SDS011;658;48.820;9.354;2023-03-19T18:59:53;11.03;;;9.80;;
1328;SDS011;658;48.820;9.354;2023-03-19T19:03:54;11.40;;;10.20;;
1328;SDS011;658;48.820;9.354;2023-03-19T19:07:55;12.23;;;10.93;;
1328;SDS011;658;48.820;9.354;2023-03-19T19:11:58;11.43;;;10.33;;
1328;SDS011;658;48.820;9.354;2023-03-19T19:15:59;11.87;;;10.70;;
1328;SDS011;658;48.820;9.354;2023-03-19T19:20:00;11.67;;;9.97;;
1328;SDS011;658;48.820;9.354;2023-03-19T19:24:01;11.83;;;10.67;;
1328;SDS011;658;48.820;9.354;2023-03-19T19:28:03;10.57;;;9.17;;
1328;SDS011;658;48.820;9.354;2023-03-19T19:32:14;11.67;;;9.47;;
1328;SDS011;658;48.820;9.354;2023-03-19T19:36:23;11.63;;;10.10;;
1328;SDS011;658;48.820;9.354;2023-03-19T19:40:26;10.23;;;9.03;;
1328;SDS011;658;48.820;9.354;2023-03-19T19:44:30;10.73;;;9.60;;
1328;SDS011;658;48.820;9.354;2023-03-19T19:48:30;10.83;;;9.73;;
1328;SDS011;658;48.820;9.354;2023-03-19T19:52:31;12.50;;;10.07;;
1328;SDS011;658;48.820;9.354;2023-03-19T19:56:31;10.20;;;8.93;;
1328;SDS011;658;48.820;9.354;2023-03-19T20:00:32;10.47;;;9.33;;
1328;SDS011;658;48.820;9.354;2023-03-19T20:04:33;9.53;;;8.53;;
1328;SDS011;658;48.820;9.354;2023-03-19T20:08:33;9.53;;;7.57;;
1328;SDS011;658;48.820;9.354;2023-03-19T23:21:14;3.83;;;3.53;;
1328;SDS011;658;48.820;9.354;2023-03-19T23:30:20;3.40;;;3.10;;
1328;SDS011;658;48.820;9.354;2023-03-19T23:34:25;3.80;;;3.03;;
1328;SDS011;658;48.820;9.354;2023-03-19T23:38:27;3.30;;;3.00;;
1328;SDS011;658;48.820;9.354;2023-03-19T23:42:28;3.70;;;3.40;;
1328;SDS011;658;48.820;9.354;2023-03-19T23:51:27;4.23;;;3.83;;
1328;SDS011;658;48.820;9.354;2023-03-19T23:55:28;4.37;;;3.23;;
1328;SDS011;658;48.820;9.354;2023-03-19T23:59:33;3.23;;;2.93;;
